createdAt,value
2018-06-29T00:00:35.286Z,3.2
2018-06-29T00:03:35.144Z,2.8
2018-06-29T00:06:35.133Z,3.3
2018-06-29T00:09:35.303Z,3.1
2018-06-29T00:12:35.182Z,4.2
2018-06-29T00:15:35.034Z,3.6
2018-06-29T00:18:35.077Z,4
2018-06-29T00:21:35.079Z,9.2
2018-06-29T00:24:35.650Z,7
2018-06-29T00:27:35.261Z,8.9
2018-06-29T00:30:35.527Z,10.5
2018-06-29T00:33:35.168Z,8.5
2018-06-29T00:36:35.217Z,7.5
2018-06-29T00:39:35.212Z,6.7
2018-06-29T00:42:35.220Z,6.5
2018-06-29T00:45:35.177Z,6
2018-06-29T00:48:35.137Z,5.5
2018-06-29T00:51:35.276Z,4.7
2018-06-29T00:54:35.597Z,4.7
2018-06-29T00:57:35.172Z,6.1
2018-06-29T01:00:35.298Z,5.4
2018-06-29T01:03:35.191Z,5.6
2018-06-29T01:06:34.975Z,4.8
2018-06-29T01:09:35.195Z,5.3
2018-06-29T01:12:35.286Z,7.5
2018-06-29T01:15:34.999Z,7.1
2018-06-29T01:18:34.983Z,6.9
2018-06-29T01:21:35.311Z,5.7
2018-06-29T01:24:34.923Z,4.4
2018-06-29T01:27:35.016Z,4.8
2018-06-29T01:30:34.990Z,3.9
2018-06-29T01:33:34.898Z,4.1
2018-06-29T01:36:35.100Z,4.2
2018-06-29T01:39:35.041Z,4
2018-06-29T01:42:45.128Z,3.4
2018-06-29T01:45:35.242Z,3.5
2018-06-29T01:48:35.168Z,4.7
2018-06-29T01:51:35.018Z,3.7
2018-06-29T01:54:34.994Z,3.7
2018-06-29T01:57:35.297Z,3.5
2018-06-29T02:00:35.038Z,3.8
2018-06-29T02:03:35.161Z,4.8
2018-06-29T02:06:35.087Z,4.2
2018-06-29T02:09:34.966Z,4.1
2018-06-29T02:12:35.069Z,3.7
2018-06-29T02:15:34.998Z,3.2
2018-06-29T02:18:35.036Z,3.4
2018-06-29T02:21:34.937Z,4.2
2018-06-29T02:24:35.123Z,4.1
2018-06-29T02:27:35.701Z,3.5
2018-06-29T02:30:35.975Z,3.9
2018-06-29T02:33:35.084Z,3.4
2018-06-29T02:36:35.170Z,4.7
2018-06-29T02:39:35.034Z,3.9
2018-06-29T02:42:35.052Z,3.2
2018-06-29T02:45:34.998Z,3.4
2018-06-29T02:48:35.151Z,3.1
2018-06-29T02:51:35.097Z,3
2018-06-29T02:54:35.036Z,3.1
2018-06-29T02:57:35.086Z,2.8
2018-06-29T03:00:35.229Z,3.4
2018-06-29T03:03:35.250Z,3.9
2018-06-29T03:06:35.168Z,3.3
2018-06-29T03:09:35.220Z,3.1
2018-06-29T03:12:35.223Z,2.8
2018-06-29T03:15:35.129Z,3
2018-06-29T03:18:35.290Z,2.9
2018-06-29T03:21:35.211Z,2.8
2018-06-29T03:24:35.189Z,2.7
2018-06-29T03:27:35.198Z,3.3
2018-06-29T03:30:35.126Z,3
2018-06-29T03:33:35.101Z,2.9
2018-06-29T03:36:35.277Z,2.8
2018-06-29T03:39:34.939Z,3.1
2018-06-29T03:42:35.256Z,3.5
2018-06-29T03:45:35.102Z,3
2018-06-29T03:48:35.289Z,2.9
2018-06-29T03:51:35.158Z,2.8
2018-06-29T03:54:35.016Z,2.7
2018-06-29T03:57:34.955Z,2.7
2018-06-29T04:00:34.983Z,2.8
2018-06-29T04:03:35.410Z,2.7
2018-06-29T04:06:35.089Z,2.7
2018-06-29T04:09:34.911Z,2.7
2018-06-29T04:12:35.353Z,3.1
2018-06-29T04:15:35.139Z,2.9
2018-06-29T04:18:35.471Z,2.9
2018-06-29T04:21:35.176Z,2.7
2018-06-29T04:24:35.145Z,2.8
2018-06-29T04:27:35.177Z,2.7
2018-06-29T04:30:34.892Z,2.9
2018-06-29T04:33:34.861Z,2.7
2018-06-29T04:36:35.105Z,2.6
2018-06-29T04:39:35.080Z,2.6
2018-06-29T04:42:34.994Z,2.5
2018-06-29T04:45:35.177Z,2.9
2018-06-29T04:48:34.986Z,2.8
2018-06-29T04:51:34.961Z,2.6
2018-06-29T04:54:35.030Z,2.6
2018-06-29T04:57:35.056Z,3.1
2018-06-29T05:00:34.979Z,2.8
2018-06-29T05:03:34.974Z,2.6
2018-06-29T05:06:35.065Z,2.5
2018-06-29T05:09:35.058Z,2.5
2018-06-29T05:12:35.030Z,2.4
2018-06-29T05:15:35.827Z,2.4
2018-06-29T05:18:34.987Z,2.4
2018-06-29T05:21:35.255Z,2.4
2018-06-29T05:24:35.186Z,2.7
2018-06-29T05:27:35.154Z,2.5
2018-06-29T05:30:35.068Z,2.5
2018-06-29T05:33:34.959Z,2.5
2018-06-29T05:36:35.166Z,2.4
2018-06-29T05:39:35.215Z,2.4
2018-06-29T05:42:35.768Z,2.4
2018-06-29T05:45:35.011Z,2.4
2018-06-29T05:48:35.137Z,2.4
2018-06-29T05:51:35.221Z,2.4
2018-06-29T05:54:35.400Z,2.3
2018-06-29T05:57:36.187Z,2.4
2018-06-29T06:00:35.057Z,2.4
2018-06-29T06:03:35.078Z,2.4
2018-06-29T06:06:35.223Z,2.6
2018-06-29T06:09:35.158Z,2.8
2018-06-29T06:12:35.223Z,2.6
2018-06-29T06:15:35.160Z,2.4
2018-06-29T06:18:35.305Z,2.4
2018-06-29T06:21:35.178Z,2.4
2018-06-29T06:24:35.229Z,2.4
2018-06-29T06:27:35.225Z,2.5
2018-06-29T06:30:34.922Z,2.4
2018-06-29T06:33:35.227Z,2.4
2018-06-29T06:36:35.180Z,2.5
2018-06-29T06:39:35.233Z,2.4
2018-06-29T06:42:35.150Z,2.5
2018-06-29T06:45:35.242Z,2.4
2018-06-29T06:48:35.273Z,2.4
2018-06-29T06:51:35.225Z,2.5
2018-06-29T06:54:35.068Z,2.5
2018-06-29T06:57:35.013Z,2.3
2018-06-29T07:00:35.296Z,2.4
2018-06-29T07:03:35.064Z,2.5
2018-06-29T07:06:35.078Z,2.4
2018-06-29T07:09:34.983Z,7.5
2018-06-29T07:12:36.129Z,6.9
2018-06-29T07:15:35.023Z,6.3
2018-06-29T07:18:34.944Z,6.8
2018-06-29T07:21:35.073Z,7
2018-06-29T07:24:36.572Z,6.7
2018-06-29T07:27:35.260Z,5.6
2018-06-29T07:30:34.990Z,5.4
2018-06-29T07:33:35.156Z,5.9
2018-06-29T07:36:35.126Z,5.1
2018-06-29T07:39:34.904Z,5.5
2018-06-29T07:42:34.993Z,4.6
2018-06-29T07:45:35.004Z,4.3
2018-06-29T07:48:35.213Z,3.6
2018-06-29T07:51:35.256Z,3.5
2018-06-29T07:54:34.914Z,3.2
2018-06-29T07:57:35.227Z,3.8
2018-06-29T08:00:35.043Z,3.2
2018-06-29T08:03:35.064Z,3
2018-06-29T08:06:35.191Z,3.1
2018-06-29T08:09:35.058Z,2.9
2018-06-29T08:12:35.045Z,3
2018-06-29T08:15:34.983Z,3.4
2018-06-29T08:18:35.013Z,3.5
2018-06-29T08:21:35.028Z,3.1
2018-06-29T08:24:35.066Z,3.2
2018-06-29T08:27:35.140Z,3.1
2018-06-29T08:30:35.117Z,3.1
2018-06-29T08:33:35.104Z,2.9
2018-06-29T08:36:35.117Z,3.5
2018-06-29T08:39:35.124Z,3.4
2018-06-29T08:42:35.138Z,3
2018-06-29T08:45:35.164Z,3
2018-06-29T08:48:35.168Z,2.8
2018-06-29T08:51:35.180Z,2.8
2018-06-29T08:54:35.283Z,2.9
2018-06-29T08:57:35.154Z,2.8
2018-06-29T09:00:35.227Z,3.4
2018-06-29T09:03:35.259Z,3.1
2018-06-29T09:06:35.053Z,3.8
2018-06-29T09:09:35.231Z,3.5
2018-06-29T09:12:35.297Z,3.1
2018-06-29T09:15:35.328Z,2.9
2018-06-29T09:18:35.480Z,2.9
2018-06-29T09:21:35.348Z,2.8
2018-06-29T09:24:35.172Z,4.1
2018-06-29T09:27:35.200Z,3.7
2018-06-29T09:30:35.299Z,3.2
2018-06-29T09:33:35.362Z,3.1
2018-06-29T09:36:35.290Z,2.8
2018-06-29T09:39:35.412Z,2.9
2018-06-29T09:42:36.259Z,2.7
2018-06-29T09:45:35.122Z,2.7
2018-06-29T09:48:35.435Z,2.8
2018-06-29T09:51:35.581Z,3
2018-06-29T09:54:35.310Z,3
2018-06-29T09:57:35.052Z,2.8
2018-06-29T10:00:35.785Z,2.7
2018-06-29T10:03:35.078Z,2.6
2018-06-29T10:06:35.135Z,2.7
2018-06-29T10:09:35.048Z,2.6
2018-06-29T10:12:34.922Z,2.6
2018-06-29T10:15:35.020Z,2.6
2018-06-29T10:18:35.064Z,2.6
2018-06-29T10:21:35.085Z,2.6
2018-06-29T10:24:35.086Z,2.6
2018-06-29T10:27:34.899Z,2.6
2018-06-29T10:30:35.128Z,2.6
2018-06-29T10:33:35.212Z,2.6
2018-06-29T10:36:35.137Z,2.6
2018-06-29T10:39:34.993Z,2.6
2018-06-29T10:42:34.871Z,2.6
2018-06-29T10:45:34.987Z,2.5
2018-06-29T10:48:34.977Z,2.7
2018-06-29T10:51:34.893Z,2.8
2018-06-29T10:54:34.858Z,2.7
2018-06-29T10:57:35.077Z,2.6
2018-06-29T11:00:35.053Z,2.9
2018-06-29T11:03:35.064Z,2.7
2018-06-29T11:06:34.980Z,2.6
2018-06-29T11:09:35.042Z,2.6
2018-06-29T11:12:34.957Z,2.6
2018-06-29T11:15:34.899Z,2.6
2018-06-29T11:18:35.066Z,2.6
2018-06-29T11:21:35.149Z,2.5
2018-06-29T11:24:34.960Z,2.5
2018-06-29T11:27:34.922Z,2.6
2018-06-29T11:30:35.338Z,2.6
2018-06-29T11:33:35.049Z,2.6
2018-06-29T11:36:34.860Z,2.6
2018-06-29T11:39:35.110Z,2.6
2018-06-29T11:42:35.811Z,2.5
2018-06-29T11:45:35.132Z,2.5
2018-06-29T11:48:35.544Z,2.5
2018-06-29T11:51:34.991Z,2.5
2018-06-29T11:54:34.981Z,2.6
2018-06-29T11:57:34.913Z,2.6
2018-06-29T12:00:35.596Z,2.6
2018-06-29T12:03:34.947Z,2.6
2018-06-29T12:06:34.885Z,2.5
2018-06-29T12:09:34.874Z,2.6
2018-06-29T12:12:34.854Z,2.6
2018-06-29T12:15:35.110Z,2.5
2018-06-29T12:18:34.872Z,2.4
2018-06-29T12:21:35.204Z,2.5
2018-06-29T12:24:35.072Z,2.5
2018-06-29T12:27:34.983Z,2.5
2018-06-29T12:30:35.182Z,2.5
2018-06-29T12:33:35.810Z,2.5
2018-06-29T12:36:35.810Z,2.5
2018-06-29T12:39:35.622Z,2.6
2018-06-29T12:42:35.401Z,2.6
2018-06-29T12:45:35.535Z,2.5
2018-06-29T12:48:35.702Z,2.4
2018-06-29T12:51:35.941Z,2.4
2018-06-29T12:54:35.879Z,2.4
2018-06-29T12:57:35.229Z,2.4
2018-06-29T13:00:35.817Z,2.4
2018-06-29T13:03:35.720Z,2.5
2018-06-29T13:06:34.882Z,2.3
2018-06-29T13:09:35.147Z,2.4
2018-06-29T13:12:34.833Z,2.5
2018-06-29T13:15:34.911Z,2.5
2018-06-29T13:18:35.094Z,2.4
2018-06-29T13:21:34.913Z,2.4
2018-06-29T13:24:34.802Z,2.4
2018-06-29T13:27:34.979Z,2.4
2018-06-29T13:30:35.053Z,2.4
2018-06-29T13:33:34.773Z,2.4
2018-06-29T13:36:35.033Z,2.4
2018-06-29T13:39:34.936Z,2.4
2018-06-29T13:42:34.937Z,2.4
2018-06-29T13:45:34.933Z,2.3
2018-06-29T13:48:34.961Z,2.4
2018-06-29T13:51:34.901Z,2.4
2018-06-29T13:54:34.914Z,2.4
2018-06-29T13:57:34.838Z,2.5
2018-06-29T14:00:34.760Z,2.5
2018-06-29T14:03:34.986Z,2.4
2018-06-29T14:06:34.930Z,2.4
2018-06-29T14:09:35.025Z,2.4
2018-06-29T14:12:34.974Z,2.3
2018-06-29T14:15:34.917Z,2.3
2018-06-29T14:18:34.943Z,2.3
2018-06-29T14:21:34.939Z,2.4
2018-06-29T14:24:34.800Z,2.4
2018-06-29T14:27:34.941Z,2.3
2018-06-29T14:30:34.882Z,2.3
2018-06-29T14:33:34.910Z,2.3
2018-06-29T14:36:34.949Z,2.4
2018-06-29T14:39:34.859Z,2.3
2018-06-29T14:42:34.996Z,2.3
2018-06-29T14:45:34.898Z,2.3
2018-06-29T14:48:34.912Z,2.3
2018-06-29T14:51:35.072Z,2.2
2018-06-29T14:54:34.889Z,2.3
2018-06-29T14:57:35.001Z,2.3
2018-06-29T15:00:34.895Z,2.2
2018-06-29T15:03:35.120Z,2.2
2018-06-29T15:06:35.021Z,2.2
2018-06-29T15:09:36.274Z,2.2
2018-06-29T15:12:34.951Z,2.3
2018-06-29T15:15:34.823Z,2.2
2018-06-29T15:18:34.759Z,2.2
2018-06-29T15:21:35.429Z,2.3
2018-06-29T15:24:35.452Z,2.2
2018-06-29T15:27:34.805Z,2.2
2018-06-29T15:30:34.885Z,2.2
2018-06-29T15:33:34.941Z,2.2
2018-06-29T15:36:34.895Z,2.2
2018-06-29T15:39:34.873Z,2.2
2018-06-29T15:42:34.820Z,2.3
2018-06-29T15:45:34.936Z,2.2
2018-06-29T15:48:35.101Z,2.2
2018-06-29T15:51:34.886Z,2.1
2018-06-29T15:54:34.999Z,2.2
2018-06-29T15:57:34.891Z,2.2
2018-06-29T16:00:34.709Z,2.2
2018-06-29T16:03:34.850Z,2.1
2018-06-29T16:06:34.953Z,2.2
2018-06-29T16:09:34.940Z,2.2
2018-06-29T16:12:34.922Z,2.3
2018-06-29T16:15:35.503Z,2.1
2018-06-29T16:18:34.758Z,2.1
2018-06-29T16:21:35.707Z,2.2
2018-06-29T16:24:34.976Z,3
2018-06-29T16:27:34.776Z,2.8
2018-06-29T16:30:34.950Z,3.1
2018-06-29T16:33:34.823Z,4.7
2018-06-29T16:36:34.813Z,5.3
2018-06-29T16:39:34.933Z,5
2018-06-29T16:42:34.958Z,4.5
2018-06-29T16:45:34.951Z,4.1
2018-06-29T16:48:35.050Z,3.7
2018-06-29T16:51:34.975Z,3.7
2018-06-29T16:54:34.987Z,4.2
2018-06-29T16:57:34.958Z,3.7
2018-06-29T17:00:35.141Z,3.2
2018-06-29T17:03:35.060Z,3.5
2018-06-29T17:06:34.766Z,3.3
2018-06-29T17:09:35.004Z,4.4
2018-06-29T17:12:35.077Z,4
2018-06-29T17:15:34.929Z,3.8
2018-06-29T17:18:35.823Z,4.7
2018-06-29T17:21:34.967Z,3.8
2018-06-29T17:24:34.936Z,3.7
2018-06-29T17:27:35.037Z,3.2
2018-06-29T17:30:34.876Z,3.7
2018-06-29T17:33:35.411Z,3.2
2018-06-29T17:36:34.820Z,3
2018-06-29T17:39:34.930Z,3.7
2018-06-29T17:42:34.929Z,3.5
2018-06-29T17:45:34.937Z,3.1
2018-06-29T17:48:34.783Z,3.3
2018-06-29T17:51:34.881Z,3.1
2018-06-29T17:54:34.791Z,3.7
2018-06-29T17:57:34.816Z,3.5
2018-06-29T18:00:34.883Z,3.4
2018-06-29T18:03:34.733Z,3.7
2018-06-29T18:06:34.907Z,3.1
2018-06-29T18:09:34.983Z,2.8
2018-06-29T18:12:35.396Z,2.7
2018-06-29T18:15:34.964Z,2.6
2018-06-29T18:18:34.853Z,2.5
2018-06-29T18:21:34.951Z,2.6
2018-06-29T18:24:35.071Z,2.9
2018-06-29T18:27:34.997Z,2.7
2018-06-29T18:30:34.700Z,2.7
2018-06-29T18:33:34.728Z,2.4
2018-06-29T18:36:34.967Z,2.5
2018-06-29T18:39:34.716Z,2.6
2018-06-29T18:42:35.011Z,3.6
2018-06-29T18:45:34.729Z,3
2018-06-29T18:48:34.754Z,2.6
2018-06-29T18:51:35.089Z,2.6
2018-06-29T18:54:34.961Z,4.8
2018-06-29T18:57:34.744Z,5.1
2018-06-29T19:00:34.798Z,4.6
2018-06-29T19:03:34.951Z,4.1
2018-06-29T19:06:34.895Z,3.9
2018-06-29T19:09:36.255Z,3.9
2018-06-29T19:12:34.888Z,4
2018-06-29T19:15:34.941Z,5
2018-06-29T19:18:36.416Z,4.7
2018-06-29T19:21:34.681Z,4
2018-06-29T19:24:34.967Z,3.5
2018-06-29T19:27:34.797Z,3.6
2018-06-29T19:30:35.545Z,3.8
2018-06-29T19:33:34.789Z,3.8
2018-06-29T19:36:34.967Z,3.9
2018-06-29T19:39:35.547Z,4.3
2018-06-29T19:42:34.862Z,4.2
2018-06-29T19:45:34.929Z,3.8
2018-06-29T19:48:34.863Z,4.7
2018-06-29T19:51:35.032Z,4.1
2018-06-29T19:54:34.916Z,5.1
2018-06-29T19:57:34.905Z,5.7
2018-06-29T20:00:34.829Z,8.8
2018-06-29T20:03:34.884Z,7.6
2018-06-29T20:06:34.863Z,6.1
2018-06-29T20:09:34.926Z,5.2
2018-06-29T20:12:34.868Z,4.4
2018-06-29T20:15:34.930Z,5
2018-06-29T20:18:34.943Z,4
2018-06-29T20:21:34.785Z,3.5
2018-06-29T20:24:34.799Z,3.9
2018-06-29T20:27:34.683Z,3.6
2018-06-29T20:30:34.814Z,3.4
2018-06-29T20:33:34.901Z,3.1
2018-06-29T20:36:34.783Z,3.4
2018-06-29T20:39:35.017Z,3.1
2018-06-29T20:42:34.773Z,3.7
2018-06-29T20:45:34.823Z,3.3
2018-06-29T20:48:36.090Z,3.3
2018-06-29T20:51:34.847Z,3.1
2018-06-29T20:54:35.069Z,2.9
2018-06-29T20:57:34.869Z,2.7
2018-06-29T21:00:34.743Z,2.7
2018-06-29T21:03:34.797Z,2.7
2018-06-29T21:06:34.764Z,2.9
2018-06-29T21:09:34.941Z,3.2
2018-06-29T21:12:34.841Z,3.3
2018-06-29T21:15:34.745Z,2.8
2018-06-29T21:18:34.819Z,2.9
2018-06-29T21:21:34.803Z,3.4
2018-06-29T21:24:34.921Z,3.2
2018-06-29T21:27:34.979Z,3
2018-06-29T21:30:34.707Z,2.9
2018-06-29T21:33:34.883Z,3
2018-06-29T21:36:34.770Z,2.8
2018-06-29T21:39:34.869Z,3.3
2018-06-29T21:42:35.522Z,3.5
2018-06-29T21:45:34.720Z,3
2018-06-29T21:48:35.001Z,2.8
2018-06-29T21:51:34.892Z,2.8
2018-06-29T21:54:34.854Z,3
2018-06-29T21:57:34.919Z,2.9
2018-06-29T22:00:34.922Z,3.6
2018-06-29T22:03:34.709Z,3.4
2018-06-29T22:06:34.870Z,2.9
2018-06-29T22:09:34.794Z,2.8
2018-06-29T22:12:34.808Z,2.8
2018-06-29T22:15:34.869Z,2.6
2018-06-29T22:18:34.724Z,2.5
2018-06-29T22:21:34.972Z,2.4
2018-06-29T22:24:34.764Z,3.1
2018-06-29T22:27:34.654Z,2.7
2018-06-29T22:30:34.627Z,2.7
2018-06-29T22:33:34.795Z,2.5
2018-06-29T22:36:34.891Z,2.5
2018-06-29T22:39:34.634Z,3.1
2018-06-29T22:42:35.016Z,3.1
2018-06-29T22:45:34.921Z,2.7
2018-06-29T22:48:34.647Z,2.5
2018-06-29T22:51:35.069Z,2.4
2018-06-29T22:54:34.886Z,2.5
2018-06-29T22:57:34.685Z,2.8
2018-06-29T23:00:34.867Z,2.6
2018-06-29T23:03:34.804Z,2.4
2018-06-29T23:06:34.608Z,2.4
2018-06-29T23:09:34.929Z,2.6
2018-06-29T23:12:34.830Z,2.4
2018-06-29T23:15:34.614Z,2.6
2018-06-29T23:18:34.722Z,2.4
2018-06-29T23:21:34.824Z,2.3
2018-06-29T23:24:34.613Z,2.3
2018-06-29T23:27:34.712Z,2.3
2018-06-29T23:30:35.015Z,2.4
2018-06-29T23:33:34.616Z,2.4
2018-06-29T23:36:34.799Z,2.4
2018-06-29T23:39:34.973Z,2.5
2018-06-29T23:42:34.547Z,2.8
2018-06-29T23:45:35.844Z,2.6
2018-06-29T23:48:34.820Z,2.5
2018-06-29T23:51:34.662Z,2.4
2018-06-29T23:54:34.665Z,2.5
2018-06-29T23:57:34.787Z,2.4
